Time;durP1;ratioP1;P1;durP2;ratioP2;P2;SDS_P1;SDS_P2;PMS_P1;PMS_P2;Temp;Humidity;BMP_temperature;BMP_pressure;BME280_temperature;BME280_humidity;BME280_pressure;Samples;Min_cycle;Max_cycle;Signal;HPM_P1;HPM_P2
2022/12/18 00:00:46;;;;;;;23.55;13.68;;;0.50;99.90;;;;;;4917614;28;20039;-70
2022/12/18 00:03:13;;;;;;;24.98;13.65;;;0.50;99.90;;;;;;4921561;28;20067;-70
2022/12/18 00:05:49;;;;;;;24.35;13.05;;;0.50;99.90;;;;;;4925839;28;20036;-71
2022/12/18 00:08:15;;;;;;;26.73;13.77;;;0.50;99.90;;;;;;4903228;28;20161;-71
2022/12/18 00:10:41;;;;;;;24.10;13.25;;;0.50;99.90;;;;;;4925714;28;20043;-71
2022/12/18 00:13:07;;;;;;;25.85;14.32;;;0.40;99.90;;;;;;4924691;28;20161;-71
2022/12/18 00:15:36;;;;;;;26.92;14.48;;;0.50;99.90;;;;;;4917038;28;20048;-71
2022/12/18 00:18:02;;;;;;;23.20;12.50;;;0.50;99.90;;;;;;4924560;28;20046;-71
2022/12/18 00:20:28;;;;;;;23.92;13.55;;;0.50;99.90;;;;;;4906882;28;20059;-71
2022/12/18 00:22:54;;;;;;;26.88;14.52;;;0.50;99.90;;;;;;4914627;28;20055;-71
2022/12/18 00:25:20;;;;;;;23.85;13.57;;;0.50;99.90;;;;;;4917777;28;20047;-71
2022/12/18 00:27:45;;;;;;;26.45;14.68;;;0.50;99.90;;;;;;4909345;28;20055;-71
2022/12/18 00:30:11;;;;;;;26.63;14.93;;;0.60;99.90;;;;;;4925484;28;20497;-71
2022/12/18 00:32:37;;;;;;;29.75;15.88;;;0.70;99.90;;;;;;4921694;28;20043;-71
2022/12/18 00:35:03;;;;;;;28.45;14.45;;;0.60;99.90;;;;;;4923145;28;20497;-71
2022/12/18 00:37:29;;;;;;;29.83;15.77;;;0.70;99.90;;;;;;4919320;28;20044;-71
2022/12/18 00:39:55;;;;;;;30.70;15.32;;;0.80;99.90;;;;;;4929130;28;20043;-70
2022/12/18 00:45:05;;;;;;;29.05;15.10;;;0.80;99.90;;;;;;4931855;28;20428;-70
2022/12/18 00:47:31;;;;;;;25.83;14.63;;;0.80;99.90;;;;;;4918930;28;20077;-71
2022/12/18 00:49:56;;;;;;;32.47;17.40;;;0.80;99.90;;;;;;4928778;28;20039;-70
2022/12/18 00:52:22;;;;;;;30.73;15.88;;;0.90;99.90;;;;;;4929942;28;20477;-70
2022/12/18 00:54:47;;;;;;;28.58;16.33;;;0.80;99.90;;;;;;4922821;28;20131;-70
2022/12/18 00:57:13;;;;;;;35.17;18.65;;;0.80;99.90;;;;;;4929328;28;20047;-70
2022/12/18 00:59:39;;;;;;;33.35;17.15;;;0.70;99.90;;;;;;4926554;28;20683;-71
2022/12/18 01:02:04;;;;;;;33.97;17.50;;;0.70;99.90;;;;;;4930558;28;20552;-71
2022/12/18 01:04:32;;;;;;;27.95;16.45;;;0.60;99.90;;;;;;4929081;28;20047;-71
2022/12/18 01:06:57;;;;;;;28.98;16.17;;;0.60;99.90;;;;;;4930962;28;20593;-71
2022/12/18 01:09:23;;;;;;;29.67;15.90;;;0.70;99.90;;;;;;4928351;28;20126;-70
2022/12/18 01:11:48;;;;;;;31.08;16.90;;;0.80;99.90;;;;;;4927328;28;21803;-70
2022/12/18 01:14:14;;;;;;;30.55;17.27;;;0.80;99.90;;;;;;4925339;28;20756;-70
2022/12/18 01:16:40;;;;;;;32.42;17.50;;;0.70;99.90;;;;;;4918201;28;21110;-70
2022/12/18 01:19:06;;;;;;;30.02;17.42;;;0.60;99.90;;;;;;4924710;28;21687;-70
2022/12/18 01:21:31;;;;;;;32.35;18.48;;;0.60;99.90;;;;;;4920067;28;20647;-70
2022/12/18 01:23:57;;;;;;;33.53;18.92;;;0.60;99.90;;;;;;4905174;28;20102;-71
2022/12/18 01:26:24;;;;;;;35.30;19.38;;;0.60;99.90;;;;;;4926770;28;20048;-70
2022/12/18 01:28:49;;;;;;;30.27;17.88;;;0.60;99.90;;;;;;4922751;28;20031;-70
2022/12/18 01:31:24;;;;;;;26.73;15.48;;;0.50;99.90;;;;;;4920160;28;20766;-70
2022/12/18 01:33:51;;;;;;;29.15;18.08;;;0.40;99.90;;;;;;4930351;28;20487;-70
2022/12/18 01:36:26;;;;;;;31.88;17.92;;;0.50;99.90;;;;;;4926067;28;20175;-70
2022/12/18 01:38:53;;;;;;;33.67;18.77;;;0.50;99.90;;;;;;4924821;28;20051;-70
2022/12/18 01:41:22;;;;;;;34.60;18.30;;;0.50;99.90;;;;;;4924145;28;20039;-71
2022/12/18 01:43:54;;;;;;;34.88;18.98;;;0.50;99.90;;;;;;4921370;28;20039;-71
2022/12/18 01:46:25;;;;;;;;;;;0.40;99.90;;;;;;4918003;28;20638;-71
2022/12/18 01:48:56;;;;;;;31.30;17.95;;;0.30;99.90;;;;;;4919935;28;19929;-69
2022/12/18 01:51:22;;;;;;;35.20;18.33;;;0.20;99.90;;;;;;4925753;28;20075;-70
2022/12/18 01:53:49;;;;;;;34.58;18.33;;;0.10;99.90;;;;;;4917599;28;20112;-70
2022/12/18 01:56:19;;;;;;;31.17;17.05;;;0.10;99.90;;;;;;4920397;28;22621;-70
2022/12/18 01:58:56;;;;;;;27.50;14.43;;;0.20;99.90;;;;;;4920569;28;20043;-70
2022/12/18 02:01:25;;;;;;;25.80;13.77;;;0.00;99.90;;;;;;4920771;28;20468;-71
2022/12/18 02:03:52;;;;;;;27.08;13.85;;;-0.30;99.90;;;;;;4927930;28;20043;-70
2022/12/18 02:06:23;;;;;;;22.90;13.93;;;-0.60;99.90;;;;;;4925341;28;20050;-70
2022/12/18 02:09:06;;;;;;;28.00;13.68;;;-0.80;99.90;;;;;;4923472;28;20035;-70
2022/12/18 02:11:41;;;;;;;23.90;13.18;;;-1.00;99.90;;;;;;4926627;28;20056;-70
2022/12/18 02:14:27;;;;;;;23.70;12.52;;;-1.10;99.90;;;;;;4927102;28;20035;-69
2022/12/18 02:17:03;;;;;;;25.50;12.68;;;-1.20;99.90;;;;;;4920747;28;20536;-70
2022/12/18 02:19:53;;;;;;;24.23;13.25;;;-1.20;99.90;;;;;;4926962;28;20122;-69
2022/12/18 02:22:28;;;;;;;25.42;12.15;;;-1.20;99.90;;;;;;4921757;28;20035;-70
2022/12/18 02:25:10;;;;;;;25.60;12.95;;;-1.00;99.90;;;;;;4917966;28;20038;-70
2022/12/18 02:27:38;;;;;;;26.77;13.25;;;-1.20;99.90;;;;;;4930469;28;20051;-70
2022/12/18 02:30:06;;;;;;;27.02;13.45;;;-1.20;99.90;;;;;;4925021;28;20785;-70
2022/12/18 02:32:37;;;;;;;33.22;16.52;;;-1.10;99.90;;;;;;4922911;28;20079;-69
2022/12/18 02:35:06;;;;;;;29.02;16.23;;;-1.10;99.90;;;;;;4921974;28;21322;-69
2022/12/18 02:37:33;;;;;;;31.35;15.95;;;-0.80;99.90;;;;;;4919797;28;20046;-68
2022/12/18 02:40:00;;;;;;;34.38;18.13;;;-0.60;99.90;;;;;;4909935;28;20043;-69
2022/12/18 02:42:27;;;;;;;28.35;15.40;;;-0.50;99.90;;;;;;4919362;28;21578;-69
2022/12/18 02:44:53;;;;;;;28.27;15.18;;;-0.50;99.90;;;;;;4919604;28;20051;-69
2022/12/18 02:47:22;;;;;;;29.33;15.63;;;-0.70;99.90;;;;;;4919594;28;20042;-69
2022/12/18 02:50:12;;;;;;;34.75;17.00;;;-0.70;99.90;;;;;;4921317;28;20050;-69
2022/12/18 02:53:06;;;;;;;41.85;21.08;;;-0.60;99.90;;;;;;4923131;28;20055;-69
2022/12/18 02:56:02;;;;;;;44.13;21.25;;;-0.50;99.90;;;;;;4923845;28;20141;-69
2022/12/18 02:58:47;;;;;;;45.25;20.63;;;-0.30;99.90;;;;;;4924338;28;20036;-69
2022/12/18 03:01:29;;;;;;;42.67;20.77;;;-0.40;99.90;;;;;;4920832;28;20038;-69
2022/12/18 03:04:01;;;;;;;34.00;17.48;;;-0.40;99.90;;;;;;4926159;28;20043;-70
2022/12/18 03:06:35;;;;;;;29.40;16.83;;;-0.50;99.90;;;;;;4908733;28;20039;-69
2022/12/18 03:09:10;;;;;;;36.92;18.30;;;-0.60;99.90;;;;;;4927430;28;20734;-69
2022/12/18 03:14:29;;;;;;;46.40;24.00;;;-0.90;99.90;;;;;;4928777;28;20058;-69
2022/12/18 03:16:59;;;;;;;44.80;24.00;;;-1.10;99.90;;;;;;4921044;28;20063;-69
2022/12/18 03:19:29;;;;;;;70.03;32.03;;;-1.20;99.90;;;;;;4921614;28;20047;-70
2022/12/18 03:21:57;;;;;;;106.10;54.95;;;-1.20;99.90;;;;;;4923887;28;21041;-69
2022/12/18 03:24:24;;;;;;;78.53;40.75;;;-1.20;99.90;;;;;;4923177;28;20039;-70
2022/12/18 03:26:58;;;;;;;64.80;35.00;;;-1.20;99.90;;;;;;4911899;28;20640;-69
2022/12/18 03:29:35;;;;;;;70.40;37.33;;;-1.10;99.90;;;;;;4925697;28;20481;-69
2022/12/18 03:32:27;;;;;;;52.92;27.08;;;-1.10;99.90;;;;;;4929734;28;20868;-76
2022/12/18 03:34:58;;;;;;;38.45;21.00;;;-1.00;99.90;;;;;;4922963;28;20042;-75
2022/12/18 03:37:24;;;;;;;34.17;19.63;;;-0.80;99.90;;;;;;4919695;28;20694;-75
2022/12/18 03:39:49;;;;;;;36.97;18.92;;;-0.80;99.90;;;;;;4912738;28;20404;-73
2022/12/18 03:42:17;;;;;;;30.67;17.45;;;-0.80;99.90;;;;;;4918427;28;20779;-75
2022/12/18 03:45:05;;;;;;;33.90;17.48;;;-0.70;99.90;;;;;;4922123;28;20040;-74
2022/12/18 03:47:46;;;;;;;34.15;18.25;;;-0.90;99.90;;;;;;4915743;28;20429;-75
2022/12/18 03:50:17;;;;;;;32.25;17.92;;;-1.10;99.90;;;;;;4918907;28;20093;-76
2022/12/18 03:52:54;;;;;;;33.13;17.75;;;-1.30;99.90;;;;;;4913757;28;20047;-76
2022/12/18 03:55:21;;;;;;;32.97;19.02;;;-1.20;99.90;;;;;;4923682;28;20047;-76
2022/12/18 03:57:48;;;;;;;39.30;19.65;;;-1.00;99.90;;;;;;4921957;28;21287;-76
2022/12/18 04:00:17;;;;;;;31.50;16.48;;;-0.80;99.90;;;;;;4923666;28;20115;-76
2022/12/18 04:02:51;;;;;;;29.02;15.75;;;-0.90;99.90;;;;;;4926832;28;20066;-76
2022/12/18 04:05:19;;;;;;;28.30;15.00;;;-1.10;99.90;;;;;;4929202;28;20562;-76
2022/12/18 04:07:47;;;;;;;26.25;14.57;;;-1.20;99.90;;;;;;4919916;28;20078;-76
2022/12/18 04:10:15;;;;;;;28.17;14.07;;;-1.10;99.90;;;;;;4926001;28;20098;-76
2022/12/18 04:12:41;;;;;;;25.95;13.65;;;-1.00;99.90;;;;;;4923925;28;20130;-75
2022/12/18 04:15:09;;;;;;;25.33;14.50;;;-1.00;99.90;;;;;;4921609;28;20040;-75
2022/12/18 04:17:34;;;;;;;26.83;15.27;;;-1.00;99.90;;;;;;4919505;28;20043;-75
2022/12/18 04:20:00;;;;;;;31.42;17.08;;;-1.10;99.90;;;;;;4925591;28;20142;-76
2022/12/18 04:22:26;;;;;;;32.03;17.55;;;-1.20;99.90;;;;;;4924903;28;20043;-75
2022/12/18 04:24:51;;;;;;;35.15;18.08;;;-1.40;99.90;;;;;;4901391;28;21988;-75
2022/12/18 04:27:17;;;;;;;31.73;16.50;;;-1.30;99.90;;;;;;4920469;28;20158;-75
2022/12/18 04:29:42;;;;;;;30.33;16.85;;;-1.30;99.90;;;;;;4925079;28;20140;-75
2022/12/18 04:32:09;;;;;;;30.42;17.05;;;-1.50;99.90;;;;;;4925624;28;20142;-76
2022/12/18 04:34:34;;;;;;;29.90;16.02;;;-1.50;99.90;;;;;;4923129;28;20035;-75
2022/12/18 04:37:00;;;;;;;29.38;16.42;;;-1.60;99.90;;;;;;4917186;28;21284;-75
2022/12/18 04:39:26;;;;;;;30.30;15.50;;;-1.60;99.90;;;;;;4932202;28;20459;-75
2022/12/18 04:41:52;;;;;;;34.42;17.20;;;-1.60;99.90;;;;;;4927963;28;20542;-76
2022/12/18 04:44:17;;;;;;;30.20;16.08;;;-1.40;99.90;;;;;;4928086;28;20461;-75
2022/12/18 04:46:43;;;;;;;34.00;18.05;;;-1.20;99.90;;;;;;4928953;28;20043;-75
2022/12/18 04:49:10;;;;;;;29.33;16.63;;;-1.20;99.90;;;;;;4927771;28;20501;-75
2022/12/18 04:51:37;;;;;;;35.15;18.67;;;-1.20;99.90;;;;;;4924082;28;20106;-75
2022/12/18 04:54:02;;;;;;;36.22;18.98;;;-1.20;99.90;;;;;;4921688;28;20142;-75
2022/12/18 04:56:28;;;;;;;37.33;21.50;;;-1.40;99.90;;;;;;4923406;28;20045;-76
2022/12/18 04:58:54;;;;;;;30.02;15.77;;;-1.50;99.90;;;;;;4918675;28;20154;-75
2022/12/18 05:01:19;;;;;;;29.20;15.20;;;-1.50;99.90;;;;;;4922536;28;20038;-75
2022/12/18 05:03:45;;;;;;;60.38;46.85;;;-1.70;99.90;;;;;;4921391;28;20023;-75
2022/12/18 05:06:11;;;;;;;33.35;18.30;;;-1.70;99.90;;;;;;4928767;28;20500;-75
2022/12/18 05:08:36;;;;;;;37.38;22.17;;;-1.70;99.90;;;;;;4920139;28;20761;-75
2022/12/18 05:11:08;;;;;;;47.60;30.27;;;-1.70;99.90;;;;;;4911011;28;20130;-75
2022/12/18 05:13:35;;;;;;;49.25;24.30;;;-1.60;99.90;;;;;;4921868;28;20070;-75
2022/12/18 05:16:02;;;;;;;52.65;27.95;;;-1.50;99.90;;;;;;4920123;28;20036;-76
2022/12/18 05:18:28;;;;;;;43.97;23.25;;;-1.50;99.90;;;;;;4925672;28;20067;-76
2022/12/18 05:20:54;;;;;;;40.45;23.42;;;-1.40;99.90;;;;;;4931375;28;20125;-76
2022/12/18 05:23:21;;;;;;;38.83;23.25;;;-1.40;99.90;;;;;;4924115;28;20492;-69
2022/12/18 05:25:55;;;;;;;37.33;21.80;;;-1.40;99.90;;;;;;4923302;28;20047;-69
2022/12/18 05:28:22;;;;;;;36.85;19.52;;;-1.40;99.90;;;;;;4927464;28;20039;-69
2022/12/18 05:30:52;;;;;;;29.63;16.02;;;-1.40;99.90;;;;;;4926080;28;20047;-69
2022/12/18 05:33:21;;;;;;;38.55;18.85;;;-1.30;99.90;;;;;;4904298;28;20043;-69
2022/12/18 05:35:54;;;;;;;31.38;17.70;;;-1.20;99.90;;;;;;4927794;28;20039;-69
2022/12/18 05:38:21;;;;;;;38.30;18.33;;;-1.20;99.90;;;;;;4917877;28;20849;-69
2022/12/18 05:40:48;;;;;;;37.67;19.90;;;-1.20;99.90;;;;;;4922282;28;20075;-69
2022/12/18 05:43:14;;;;;;;23.67;12.35;;;-1.10;99.90;;;;;;4917989;28;20044;-69
2022/12/18 05:45:40;;;;;;;19.85;10.98;;;-1.10;99.90;;;;;;4922277;28;20098;-69
2022/12/18 05:48:06;;;;;;;13.52;7.50;;;-1.30;99.90;;;;;;4927488;28;20043;-70
2022/12/18 05:50:38;;;;;;;14.23;6.93;;;-1.60;99.90;;;;;;4919566;28;20058;-69
2022/12/18 05:53:04;;;;;;;11.23;6.47;;;-1.80;99.90;;;;;;4904270;28;20125;-69
2022/12/18 05:55:37;;;;;;;12.00;5.80;;;-2.00;99.90;;;;;;4920999;28;20046;-69
2022/12/18 05:58:04;;;;;;;15.48;6.72;;;-2.10;99.90;;;;;;4918364;28;20086;-70
2022/12/18 06:00:32;;;;;;;13.70;7.93;;;-2.00;99.90;;;;;;4919675;28;20130;-70
2022/12/18 06:02:58;;;;;;;16.35;9.75;;;-2.00;99.90;;;;;;4927528;28;20095;-69
2022/12/18 06:05:24;;;;;;;18.25;10.50;;;-1.90;99.90;;;;;;4920928;28;20038;-70
2022/12/18 06:07:50;;;;;;;35.00;18.48;;;-1.80;99.90;;;;;;4924852;28;24444;-69
2022/12/18 06:10:15;;;;;;;37.30;19.17;;;-1.80;99.90;;;;;;4926382;28;20062;-70
2022/12/18 06:12:41;;;;;;;36.13;18.48;;;-1.80;99.90;;;;;;4924602;28;20148;-70
2022/12/18 06:15:07;;;;;;;39.78;21.58;;;-1.80;99.90;;;;;;4924096;28;20134;-70
2022/12/18 06:17:34;;;;;;;41.70;22.83;;;-1.90;99.90;;;;;;4926438;28;20114;-69
2022/12/18 06:19:59;;;;;;;19.48;10.40;;;-1.90;99.90;;;;;;4930977;28;20121;-69
2022/12/18 06:22:26;;;;;;;18.05;10.52;;;-1.90;99.90;;;;;;4923166;28;20081;-69
2022/12/18 06:24:51;;;;;;;18.83;9.38;;;-2.00;99.90;;;;;;4920290;28;20103;-70
2022/12/18 06:27:17;;;;;;;15.23;8.98;;;-2.00;99.90;;;;;;4921526;28;20592;-70
2022/12/18 06:29:43;;;;;;;13.43;7.43;;;-2.20;99.90;;;;;;4925320;28;20118;-70
2022/12/18 06:32:08;;;;;;;10.13;5.63;;;-2.30;99.90;;;;;;4925527;28;20101;-70
2022/12/18 06:34:36;;;;;;;11.23;5.80;;;-2.30;99.90;;;;;;4924387;28;20468;-70
2022/12/18 06:37:02;;;;;;;10.05;5.15;;;-2.40;99.90;;;;;;4915288;28;20048;-77
2022/12/18 06:39:28;;;;;;;10.57;5.97;;;-2.40;99.90;;;;;;4911004;28;20042;-77
2022/12/18 06:41:54;;;;;;;10.40;6.00;;;-2.50;99.90;;;;;;4927203;28;20055;-77
2022/12/18 06:44:19;;;;;;;13.77;5.95;;;-2.60;99.90;;;;;;4913453;28;20035;-77
2022/12/18 06:46:45;;;;;;;10.02;6.00;;;-2.70;99.90;;;;;;4920191;28;20134;-77
2022/12/18 06:49:11;;;;;;;11.82;5.90;;;-2.80;99.90;;;;;;4929979;28;20067;-77
2022/12/18 06:51:37;;;;;;;10.25;5.68;;;-2.70;99.90;;;;;;4926761;28;20047;-77
2022/12/18 06:54:03;;;;;;;12.88;6.50;;;-2.70;99.90;;;;;;4929992;28;20075;-77
2022/12/18 06:56:29;;;;;;;12.40;6.07;;;-2.70;99.90;;;;;;4928371;28;20047;-77
2022/12/18 06:58:55;;;;;;;46.47;19.67;;;-2.70;99.90;;;;;;4930154;28;20915;-77
2022/12/18 07:01:21;;;;;;;67.80;27.05;;;-2.60;99.90;;;;;;4924394;28;20065;-77
2022/12/18 07:03:51;;;;;;;43.00;18.95;;;-2.50;99.90;;;;;;4922631;28;20039;-77
2022/12/18 07:06:19;;;;;;;33.45;16.83;;;-2.40;99.90;;;;;;4921078;28;20676;-76
2022/12/18 07:08:45;;;;;;;26.13;13.45;;;-2.40;99.90;;;;;;4923135;28;20114;-76
2022/12/18 07:11:12;;;;;;;38.85;20.35;;;-2.40;99.90;;;;;;4931192;28;20661;-77
2022/12/18 07:13:38;;;;;;;43.88;20.60;;;-2.40;99.90;;;;;;4929739;28;20038;-77
2022/12/18 07:16:12;;;;;;;39.63;21.25;;;-2.40;99.90;;;;;;4927493;28;20046;-77
2022/12/18 07:18:38;;;;;;;32.10;19.00;;;-2.30;99.90;;;;;;4928360;28;20102;-77
2022/12/18 07:21:08;;;;;;;26.55;13.55;;;-2.30;99.90;;;;;;4922851;28;20039;-77
2022/12/18 07:23:35;;;;;;;23.60;13.02;;;-2.40;99.90;;;;;;4927979;28;20567;-78
2022/12/18 07:26:12;;;;;;;18.85;11.02;;;-2.50;99.90;;;;;;4928425;28;20120;-78
2022/12/18 07:28:39;;;;;;;28.58;14.15;;;-2.40;99.90;;;;;;4927692;28;20027;-78
2022/12/18 07:31:20;;;;;;;22.63;11.20;;;-2.30;99.90;;;;;;4908722;28;20728;-78
2022/12/18 07:33:46;;;;;;;22.65;10.85;;;-2.20;99.90;;;;;;4931318;28;20043;-77
2022/12/18 07:36:12;;;;;;;22.50;13.13;;;-2.10;99.90;;;;;;4905922;29;20135;-76
2022/12/18 07:38:38;;;;;;;27.10;14.30;;;-2.10;99.90;;;;;;4916978;28;20039;-76
2022/12/18 07:41:06;;;;;;;21.38;11.95;;;-2.00;99.90;;;;;;4941085;28;20090;-75
2022/12/18 07:43:33;;;;;;;27.63;15.30;;;-1.90;99.90;;;;;;4934348;28;20137;-76
2022/12/18 07:45:58;;;;;;;28.52;16.33;;;-1.70;99.90;;;;;;4928959;28;20571;-76
2022/12/18 07:48:24;;;;;;;29.70;17.17;;;-1.50;99.90;;;;;;4936792;28;20039;-76
2022/12/18 07:50:50;;;;;;;31.65;17.85;;;-1.40;99.90;;;;;;4936228;28;20051;-74
2022/12/18 07:53:15;;;;;;;29.35;15.35;;;-1.30;99.90;;;;;;4934103;28;20067;-76
2022/12/18 07:55:41;;;;;;;31.98;16.17;;;-1.20;99.90;;;;;;4934334;28;20590;-74
2022/12/18 07:58:08;;;;;;;24.98;14.45;;;-1.10;99.90;;;;;;4927006;28;21158;-73
2022/12/18 08:00:34;;;;;;;28.70;16.05;;;-1.00;99.90;;;;;;4928578;28;20039;-78
2022/12/18 08:03:00;;;;;;;27.15;15.27;;;-0.80;99.90;;;;;;4931282;28;20126;-76
2022/12/18 08:05:25;;;;;;;32.10;14.88;;;-0.70;99.90;;;;;;4926066;28;20031;-75
2022/12/18 08:07:51;;;;;;;31.88;15.90;;;-0.60;99.90;;;;;;4930045;28;20107;-77
2022/12/18 08:10:17;;;;;;;30.27;16.60;;;-0.50;99.90;;;;;;4935435;28;20047;-77
2022/12/18 08:12:42;;;;;;;28.17;14.93;;;-0.20;99.90;;;;;;4927034;28;20047;-78
2022/12/18 08:15:08;;;;;;;28.40;14.75;;;0.00;99.90;;;;;;4916875;29;20058;-79
2022/12/18 08:17:34;;;;;;;25.50;14.75;;;0.20;99.90;;;;;;4920397;28;20035;-78
2022/12/18 08:20:00;;;;;;;24.95;13.88;;;0.40;99.90;;;;;;4928060;28;20043;-78
2022/12/18 08:22:25;;;;;;;23.17;13.23;;;0.60;99.90;;;;;;4917378;28;20059;-80
2022/12/18 08:24:51;;;;;;;23.27;13.57;;;0.70;99.90;;;;;;4935631;28;21009;-79
2022/12/18 08:27:17;;;;;;;21.42;11.45;;;0.80;99.90;;;;;;4929969;28;20575;-69
2022/12/18 08:29:42;;;;;;;23.10;13.57;;;0.80;99.90;;;;;;4927866;28;20050;-68
2022/12/18 08:32:08;;;;;;;28.88;16.17;;;0.70;99.90;;;;;;4929910;28;21207;-69
2022/12/18 08:34:34;;;;;;;27.90;16.00;;;0.60;99.90;;;;;;4931763;28;20469;-69
2022/12/18 08:36:59;;;;;;;27.20;14.70;;;0.60;99.90;;;;;;4931928;28;20039;-69
2022/12/18 08:39:25;;;;;;;27.95;16.15;;;0.50;99.90;;;;;;4915645;28;20090;-69
2022/12/18 08:44:37;;;;;;;22.50;13.95;;;0.70;99.90;;;;;;4931435;28;20119;-68
2022/12/18 08:47:04;;;;;;;22.10;12.63;;;0.70;99.90;;;;;;4927435;28;20036;-68
2022/12/18 08:49:30;;;;;;;29.23;15.00;;;0.70;99.90;;;;;;4929953;28;20028;-68
2022/12/18 08:51:59;;;;;;;26.60;14.50;;;0.80;99.90;;;;;;4930613;28;20504;-68
2022/12/18 08:54:25;;;;;;;25.80;15.10;;;0.80;99.90;;;;;;4935621;28;20049;-68
2022/12/18 08:56:50;;;;;;;25.80;14.40;;;0.90;99.90;;;;;;4932742;28;20043;-69
2022/12/18 08:59:17;;;;;;;30.38;15.10;;;1.00;99.90;;;;;;4930472;28;20042;-68
2022/12/18 09:01:42;;;;;;;29.80;15.50;;;1.00;99.90;;;;;;4922482;28;21023;-70
2022/12/18 09:04:09;;;;;;;26.85;15.25;;;1.00;99.90;;;;;;4934853;28;20027;-68
2022/12/18 09:06:35;;;;;;;25.90;14.63;;;1.00;99.90;;;;;;4932803;28;20051;-68
2022/12/18 09:09:02;;;;;;;27.80;15.98;;;1.00;99.90;;;;;;4937789;28;20646;-69
2022/12/18 09:11:28;;;;;;;28.60;16.92;;;1.00;99.90;;;;;;4939235;28;20048;-69
2022/12/18 09:13:55;;;;;;;36.83;19.40;;;1.00;99.90;;;;;;4935481;28;21072;-68
2022/12/18 09:16:22;;;;;;;39.25;22.08;;;1.00;99.90;;;;;;4936248;28;20110;-69
2022/12/18 09:18:48;;;;;;;42.33;24.58;;;0.90;99.90;;;;;;4931459;28;20489;-68
2022/12/18 09:21:16;;;;;;;42.08;23.45;;;0.90;99.90;;;;;;4931098;28;20035;-68
2022/12/18 09:23:41;;;;;;;40.95;23.17;;;0.80;99.90;;;;;;4936171;28;20142;-68
2022/12/18 09:26:08;;;;;;;40.22;22.50;;;0.90;99.90;;;;;;4934699;28;20130;-69
2022/12/18 09:28:33;;;;;;;36.75;21.45;;;1.00;99.90;;;;;;4931396;28;20112;-70
2022/12/18 09:31:05;;;;;;;51.17;28.73;;;0.90;99.90;;;;;;4926661;28;20490;-70
2022/12/18 09:33:31;;;;;;;;;;;1.10;99.90;;;;;;4933772;28;20115;-70
2022/12/18 09:35:56;;;;;;;39.00;21.05;;;1.20;99.90;;;;;;4938410;28;20176;-70
2022/12/18 09:38:23;;;;;;;58.55;35.03;;;1.10;99.90;;;;;;4931438;28;20051;-70
2022/12/18 09:40:52;;;;;;;61.80;33.58;;;0.90;99.90;;;;;;4918299;28;20070;-70
2022/12/18 09:43:22;;;;;;;46.28;26.42;;;0.70;99.90;;;;;;4927250;28;20035;-75
2022/12/18 09:46:02;;;;;;;58.20;33.42;;;0.70;99.90;;;;;;4922753;28;20062;-75
2022/12/18 09:48:34;;;;;;;36.08;20.40;;;0.80;99.90;;;;;;4931794;28;20045;-72
2022/12/18 09:51:20;;;;;;;44.30;25.90;;;0.90;99.90;;;;;;4928630;28;20602;-75
2022/12/18 09:53:53;;;;;;;55.80;30.58;;;1.20;99.90;;;;;;4937373;28;20521;-74
2022/12/18 09:56:22;;;;;;;42.13;23.90;;;1.30;99.90;;;;;;4931928;28;20456;-75
2022/12/18 09:59:02;;;;;;;32.25;18.75;;;1.30;99.90;;;;;;4927726;28;20019;-75
2022/12/18 10:01:29;;;;;;;33.70;19.00;;;1.30;99.90;;;;;;4938641;28;20044;-75
2022/12/18 10:03:55;;;;;;;35.45;18.98;;;1.30;99.90;;;;;;4937782;28;20701;-75
2022/12/18 10:06:39;;;;;;;33.40;19.80;;;1.60;99.90;;;;;;4933412;28;20071;-75
2022/12/18 10:09:12;;;;;;;41.63;24.73;;;1.70;99.90;;;;;;4928432;28;20629;-75
2022/12/18 10:11:41;;;;;;;53.97;34.70;;;1.60;99.90;;;;;;4932782;28;20047;-75
2022/12/18 10:14:58;;;;;;;47.13;27.90;;;1.70;99.90;;;;;;4927082;28;20090;-75
2022/12/18 10:17:46;;;;;;;123.70;65.10;;;1.70;99.90;;;;;;4895104;28;20047;-74
2022/12/18 10:20:13;;;;;;;41.13;24.58;;;1.80;99.90;;;;;;4921839;28;20039;-74
2022/12/18 10:22:41;;;;;;;45.42;25.52;;;1.80;99.90;;;;;;4927166;28;20126;-75
2022/12/18 10:25:19;;;;;;;43.45;23.42;;;1.90;99.90;;;;;;4934141;28;20097;-73
2022/12/18 10:27:44;;;;;;;43.95;26.73;;;2.00;99.90;;;;;;4928773;28;20428;-74
2022/12/18 10:30:20;;;;;;;64.22;37.85;;;2.00;99.90;;;;;;4930192;28;20040;-75
2022/12/18 10:32:45;;;;;;;31.48;18.13;;;2.10;99.90;;;;;;4932107;28;20122;-75
2022/12/18 10:35:24;;;;;;;32.38;18.60;;;2.20;99.90;;;;;;4928992;28;20422;-75
2022/12/18 10:38:13;;;;;;;51.83;33.42;;;2.10;99.90;;;;;;4933742;28;20060;-74
2022/12/18 10:40:48;;;;;;;36.35;20.40;;;2.00;99.90;;;;;;4936666;28;20035;-75
2022/12/18 10:43:19;;;;;;;47.70;29.30;;;2.10;99.90;;;;;;4933345;28;20069;-75
2022/12/18 10:45:59;;;;;;;35.65;20.65;;;2.20;99.90;;;;;;4939080;28;20032;-75
2022/12/18 10:48:25;;;;;;;38.03;20.55;;;2.30;99.90;;;;;;4933048;28;20043;-75
2022/12/18 10:50:53;;;;;;;35.30;21.17;;;2.20;99.90;;;;;;4932442;28;20047;-74
2022/12/18 10:53:30;;;;;;;42.92;24.40;;;2.10;99.90;;;;;;4938684;28;20043;-75
2022/12/18 10:55:58;;;;;;;40.75;23.45;;;2.10;99.90;;;;;;4939917;28;20028;-75
2022/12/18 10:58:31;;;;;;;36.03;20.85;;;2.20;99.90;;;;;;4933242;28;20129;-75
2022/12/18 11:01:04;;;;;;;34.00;20.08;;;2.40;99.90;;;;;;4940981;28;20054;-75
2022/12/18 11:03:50;;;;;;;41.10;22.90;;;2.50;99.90;;;;;;4936375;28;20089;-75
2022/12/18 11:06:18;;;;;;;34.03;19.83;;;2.60;99.90;;;;;;4932100;28;20039;-75
2022/12/18 11:09:17;;;;;;;58.03;43.97;;;2.60;99.90;;;;;;4940229;28;20044;-75
2022/12/18 11:11:53;;;;;;;35.30;21.05;;;2.70;99.90;;;;;;4937311;28;20073;-75
2022/12/18 11:14:43;;;;;;;37.17;21.13;;;2.90;99.90;;;;;;4934010;28;20027;-75
2022/12/18 11:17:22;;;;;;;37.33;22.25;;;2.90;99.90;;;;;;4919653;28;20039;-75
2022/12/18 11:19:56;;;;;;;35.75;20.85;;;2.70;99.90;;;;;;4930076;28;20122;-75
2022/12/18 11:22:33;;;;;;;35.25;20.75;;;2.80;99.90;;;;;;4931811;28;20050;-75
2022/12/18 11:25:18;;;;;;;38.30;22.70;;;2.80;99.90;;;;;;4935560;28;20031;-75
2022/12/18 11:27:58;;;;;;;34.15;20.38;;;2.80;99.90;;;;;;4925188;28;20097;-75
2022/12/18 11:30:23;;;;;;;40.35;22.60;;;2.80;99.90;;;;;;4933001;28;20043;-75
2022/12/18 11:32:54;;;;;;;38.55;21.23;;;2.90;99.90;;;;;;4938516;28;20424;-73
2022/12/18 11:35:53;;;;;;;38.38;21.35;;;3.00;99.90;;;;;;4934319;28;20043;-73
2022/12/18 11:38:25;;;;;;;38.92;21.60;;;3.10;99.90;;;;;;4937259;28;20042;-73
2022/12/18 11:41:05;;;;;;;39.92;22.02;;;3.10;99.90;;;;;;4936252;28;20130;-73
2022/12/18 11:43:41;;;;;;;32.55;19.73;;;3.00;99.90;;;;;;4934998;28;20074;-73
2022/12/18 11:46:23;;;;;;;40.00;20.58;;;3.10;99.90;;;;;;4936368;28;20043;-74
2022/12/18 11:49:06;;;;;;;40.85;23.25;;;3.20;99.90;;;;;;4933373;28;20038;-75
2022/12/18 11:51:48;;;;;;;35.28;21.33;;;3.00;99.90;;;;;;4931429;28;20047;-75
2022/12/18 11:54:15;;;;;;;37.78;20.95;;;3.00;99.90;;;;;;4926715;28;20150;-75
2022/12/18 11:57:07;;;;;;;38.17;20.35;;;2.90;99.90;;;;;;4938682;28;20124;-76
2022/12/18 11:59:56;;;;;;;35.28;20.63;;;2.90;99.90;;;;;;4940886;28;20039;-76
2022/12/18 12:02:43;;;;;;;31.98;18.73;;;3.00;99.90;;;;;;4929867;28;20154;-75
2022/12/18 12:05:19;;;;;;;34.53;20.45;;;3.10;99.90;;;;;;4933573;28;20044;-75
2022/12/18 12:08:14;;;;;;;51.42;28.98;;;3.00;99.90;;;;;;4934169;28;20042;-77
2022/12/18 12:11:06;;;;;;;29.65;18.48;;;3.10;99.90;;;;;;4927004;28;20070;-76
2022/12/18 12:13:53;;;;;;;33.80;20.35;;;3.20;99.90;;;;;;4932388;28;20038;-77
2022/12/18 12:16:26;;;;;;;35.33;19.75;;;3.30;99.90;;;;;;4926737;28;20067;-77
2022/12/18 12:18:52;;;;;;;31.40;19.77;;;3.30;99.90;;;;;;4915973;28;20326;-78
2022/12/18 12:21:40;;;;;;;43.78;24.27;;;3.40;99.90;;;;;;4907956;28;20055;-72
2022/12/18 12:24:43;;;;;;;35.08;21.63;;;3.40;99.90;;;;;;4918338;28;20034;-68
2022/12/18 12:27:17;;;;;;;405.98;249.18;;;3.50;99.90;;;;;;4925557;28;20054;-68
2022/12/18 12:30:08;;;;;;;51.53;34.53;;;3.60;99.90;;;;;;4922708;28;20045;-70
2022/12/18 12:33:00;;;;;;;39.97;23.80;;;3.70;99.90;;;;;;4925029;28;20050;-67
2022/12/18 12:35:28;;;;;;;38.35;22.75;;;3.80;99.90;;;;;;4930249;28;20487;-67
2022/12/18 12:38:12;;;;;;;36.08;21.92;;;3.80;99.90;;;;;;4920947;28;20050;-67
2022/12/18 12:40:46;;;;;;;30.60;19.50;;;3.80;99.90;;;;;;4932381;28;20031;-68
2022/12/18 12:43:24;;;;;;;45.53;32.83;;;3.90;99.90;;;;;;4918410;28;20518;-67
2022/12/18 12:46:09;;;;;;;36.17;20.35;;;3.90;99.90;;;;;;4911729;28;20121;-67
2022/12/18 12:48:44;;;;;;;38.00;24.17;;;3.90;99.90;;;;;;4920421;28;20537;-68
2022/12/18 12:51:34;;;;;;;43.13;26.23;;;3.90;99.90;;;;;;4917823;28;20036;-69
2022/12/18 12:54:02;;;;;;;37.75;22.48;;;3.90;99.90;;;;;;4933016;28;20085;-67
2022/12/18 12:56:42;;;;;;;34.58;20.30;;;3.90;99.90;;;;;;4937412;28;20031;-69
2022/12/18 12:59:51;;;;;;;32.22;19.40;;;3.90;99.90;;;;;;4928189;28;20066;-69